createdAt,value
2023-04-27T00:00:11.311Z,5.74
2023-04-27T00:03:06.005Z,5.69
2023-04-27T00:05:37.130Z,5.72
2023-04-27T00:08:07.057Z,5.72
2023-04-27T00:10:36.011Z,5.74
2023-04-27T00:13:05.084Z,5.64
2023-04-27T00:15:33.767Z,5.57
2023-04-27T00:18:04.280Z,5.56
2023-04-27T00:20:33.943Z,5.53
2023-04-27T00:23:02.989Z,5.56
2023-04-27T00:25:31.657Z,5.53
2023-04-27T00:28:00.683Z,5.48
2023-04-27T00:30:29.657Z,5.45
2023-04-27T00:32:58.641Z,5.42
2023-04-27T00:35:28.770Z,5.37
2023-04-27T00:37:57.728Z,5.32
2023-04-27T00:40:26.416Z,5.30
2023-04-27T00:42:55.561Z,5.24
2023-04-27T00:45:24.422Z,5.20
2023-04-27T00:47:53.699Z,5.16
2023-04-27T00:50:31.045Z,5.17
2023-04-27T00:53:00.746Z,5.15
2023-04-27T00:55:29.460Z,5.10
2023-04-27T00:57:58.639Z,5.10
2023-04-27T01:00:27.608Z,5.06
2023-04-27T01:02:57.415Z,5.04
2023-04-27T01:05:27.427Z,5.02
2023-04-27T01:07:57.802Z,5.00
2023-04-27T01:10:28.532Z,4.97
2023-04-27T01:12:57.626Z,4.95
2023-04-27T01:15:26.928Z,4.93
2023-04-27T01:18:00.173Z,4.89
2023-04-27T01:20:32.033Z,4.85
2023-04-27T01:23:02.348Z,4.83
2023-04-27T01:25:32.384Z,4.80
2023-04-27T01:28:04.477Z,4.78
2023-04-27T01:30:33.193Z,4.73
2023-04-27T01:33:02.158Z,4.71
2023-04-27T01:35:31.730Z,4.67
2023-04-27T01:38:02.773Z,4.69
2023-04-27T01:40:32.821Z,4.65
2023-04-27T01:43:02.016Z,4.63
2023-04-27T01:45:31.670Z,4.63
2023-04-27T01:48:02.162Z,4.57
2023-04-27T01:50:31.001Z,4.55
2023-04-27T01:52:59.924Z,4.52
2023-04-27T01:55:31.962Z,4.45
2023-04-27T01:58:01.021Z,4.43
2023-04-27T02:00:30.678Z,4.38
2023-04-27T02:03:01.417Z,4.33
2023-04-27T02:05:30.510Z,4.33
2023-04-27T02:07:59.586Z,4.30
2023-04-27T02:10:28.415Z,4.29
2023-04-27T02:13:00.545Z,4.28
2023-04-27T02:15:29.698Z,4.26
2023-04-27T02:17:58.750Z,4.25
2023-04-27T02:20:27.562Z,4.23
2023-04-27T02:22:56.560Z,4.25
2023-04-27T02:25:28.226Z,4.23
2023-04-27T02:27:57.723Z,4.24
2023-04-27T02:30:28.641Z,4.23
2023-04-27T02:33:00.914Z,4.23
2023-04-27T02:35:29.795Z,4.26
2023-04-27T02:38:01.980Z,4.20
2023-04-27T02:40:30.749Z,4.15
2023-04-27T02:42:59.672Z,4.15
2023-04-27T02:45:29.757Z,4.14
2023-04-27T02:48:00.476Z,4.13
2023-04-27T02:50:29.269Z,4.09
2023-04-27T02:52:58.236Z,4.09
2023-04-27T02:55:27.677Z,4.07
2023-04-27T02:57:56.864Z,4.03
2023-04-27T03:00:26.195Z,4.05
2023-04-27T03:02:57.308Z,4.04
2023-04-27T03:05:28.402Z,4.04
2023-04-27T03:07:57.330Z,4.01
2023-04-27T03:10:26.823Z,3.98
2023-04-27T03:12:55.853Z,4.00
2023-04-27T03:15:24.737Z,4.00
2023-04-27T03:17:55.958Z,4.00
2023-04-27T03:20:24.709Z,3.94
2023-04-27T03:22:55.950Z,3.95
2023-04-27T03:25:24.926Z,3.92
2023-04-27T03:27:53.873Z,3.93
2023-04-27T03:30:24.890Z,3.94
2023-04-27T03:32:54.671Z,3.92
2023-04-27T03:35:24.735Z,3.94
2023-04-27T03:37:53.603Z,3.92
2023-04-27T03:40:22.976Z,3.91
2023-04-27T03:42:52.018Z,3.93
2023-04-27T03:45:22.388Z,3.91
2023-04-27T03:47:52.174Z,3.95
2023-04-27T03:50:21.126Z,3.91
2023-04-27T03:52:52.893Z,3.93
2023-04-27T03:55:22.046Z,3.95
2023-04-27T03:57:51.370Z,3.96
2023-04-27T04:00:20.344Z,3.94
2023-04-27T04:02:49.764Z,3.97
2023-04-27T04:05:19.060Z,4.00
2023-04-27T04:07:48.048Z,4.03
2023-04-27T04:10:18.554Z,4.05
2023-04-27T04:12:49.604Z,4.14
2023-04-27T04:15:19.300Z,4.18
2023-04-27T04:17:49.401Z,4.25
2023-04-27T04:20:19.444Z,4.24
2023-04-27T04:22:48.564Z,4.37
2023-04-27T04:25:18.856Z,4.42
2023-04-27T04:27:48.300Z,4.52
2023-04-27T04:30:17.802Z,4.57
2023-04-27T04:32:46.837Z,4.65
2023-04-27T04:35:17.797Z,4.73
2023-04-27T04:37:47.107Z,4.79
2023-04-27T04:40:16.720Z,4.91
2023-04-27T04:42:47.228Z,4.97
2023-04-27T04:45:15.881Z,5.02
2023-04-27T04:47:44.979Z,5.13
2023-04-27T04:50:14.215Z,5.20
2023-04-27T04:52:43.296Z,5.29
2023-04-27T04:55:12.379Z,5.42
2023-04-27T04:57:41.349Z,5.46
2023-04-27T05:00:13.736Z,5.56
2023-04-27T05:02:43.272Z,5.66
2023-04-27T05:05:12.089Z,5.75
2023-04-27T05:07:41.819Z,5.86
2023-04-27T05:10:11.053Z,5.93
2023-04-27T05:12:39.993Z,6.04
2023-04-27T05:15:11.558Z,6.16
2023-04-27T05:17:40.489Z,6.30
2023-04-27T05:20:10.697Z,6.41
2023-04-27T05:22:39.622Z,6.54
2023-04-27T05:25:10.065Z,6.63
2023-04-27T05:27:39.012Z,6.77
2023-04-27T05:30:09.686Z,6.94
2023-04-27T05:32:40.039Z,7.08
2023-04-27T05:35:09.913Z,7.26
2023-04-27T05:37:38.872Z,7.52
2023-04-27T05:40:10.339Z,7.82
2023-04-27T05:42:39.302Z,8.11
2023-04-27T05:45:09.694Z,8.30
2023-04-27T05:47:40.114Z,8.56
2023-04-27T05:50:09.909Z,8.64
2023-04-27T05:52:39.394Z,8.70
2023-04-27T05:55:09.215Z,8.73
2023-04-27T05:57:38.197Z,8.87
2023-04-27T06:00:11.241Z,9.04
2023-04-27T06:02:44.379Z,9.16
2023-04-27T06:05:13.247Z,9.43
2023-04-27T06:07:43.829Z,9.59
2023-04-27T06:10:12.994Z,9.76
2023-04-27T06:12:43.032Z,9.81
2023-04-27T06:15:13.138Z,9.83
2023-04-27T06:17:44.507Z,9.94
2023-04-27T06:20:13.640Z,10.07
2023-04-27T06:22:42.620Z,10.24
2023-04-27T06:25:11.774Z,10.27
2023-04-27T06:27:40.866Z,10.37
2023-04-27T06:30:10.956Z,10.38
2023-04-27T06:32:39.881Z,10.51
2023-04-27T06:35:10.994Z,10.63
2023-04-27T06:37:40.207Z,10.66
2023-04-27T06:40:09.906Z,10.72
2023-04-27T06:42:38.926Z,10.85
2023-04-27T06:45:08.994Z,10.97
2023-04-27T06:47:37.959Z,11.13
2023-04-27T06:50:07.701Z,11.24
2023-04-27T06:52:37.970Z,11.21
2023-04-27T06:55:08.059Z,11.17
2023-04-27T06:57:37.129Z,11.39
2023-04-27T07:00:07.133Z,11.51
2023-04-27T07:02:36.552Z,11.51
2023-04-27T07:05:05.834Z,11.66
2023-04-27T07:07:34.901Z,11.73
2023-04-27T07:10:05.920Z,11.70
2023-04-27T07:12:35.186Z,11.69
2023-04-27T07:15:04.530Z,11.60
2023-04-27T07:17:34.005Z,11.60
2023-04-27T07:20:04.012Z,11.60
2023-04-27T07:22:33.107Z,11.63
2023-04-27T07:25:01.844Z,11.77
2023-04-27T07:27:33.106Z,11.83
2023-04-27T07:30:01.792Z,11.86
2023-04-27T07:32:31.211Z,11.96
2023-04-27T07:35:00.040Z,11.98
2023-04-27T07:37:29.082Z,11.93
2023-04-27T07:39:57.781Z,11.80
2023-04-27T07:42:26.725Z,11.81
2023-04-27T07:44:58.281Z,11.87
2023-04-27T07:47:27.324Z,12.01
2023-04-27T07:49:56.079Z,12.04
2023-04-27T07:52:25.057Z,12.18
2023-04-27T07:54:53.972Z,12.26
2023-04-27T07:57:22.957Z,12.39
2023-04-27T07:59:51.704Z,12.46
2023-04-27T08:02:22.376Z,12.46
2023-04-27T08:04:51.912Z,12.57
2023-04-27T08:07:21.679Z,12.56
2023-04-27T08:09:53.343Z,12.58
2023-04-27T08:12:22.328Z,12.51
2023-04-27T08:14:51.153Z,12.69
2023-04-27T08:17:22.048Z,12.70
2023-04-27T08:19:50.744Z,12.85
2023-04-27T08:22:19.852Z,12.86
2023-04-27T08:24:48.436Z,12.96
2023-04-27T08:27:17.455Z,12.90
2023-04-27T08:29:49.945Z,12.94
2023-04-27T08:32:19.212Z,12.80
2023-04-27T08:34:49.249Z,12.69
2023-04-27T08:37:18.633Z,12.70
2023-04-27T08:39:49.203Z,12.65
2023-04-27T08:42:18.274Z,12.57
2023-04-27T08:44:47.015Z,12.83
2023-04-27T08:47:16.356Z,13.00
2023-04-27T08:49:45.086Z,12.99
2023-04-27T08:52:17.738Z,12.98
2023-04-27T08:54:46.425Z,12.96
2023-04-27T08:57:16.810Z,13.06
2023-04-27T08:59:45.688Z,12.96
2023-04-27T09:02:22.562Z,12.76
2023-04-27T09:04:52.116Z,12.71
2023-04-27T09:07:22.643Z,12.63
2023-04-27T09:09:51.440Z,12.51
2023-04-27T09:12:22.268Z,12.48
2023-04-27T09:15:03.725Z,12.85
2023-04-27T09:17:34.327Z,13.15
2023-04-27T09:20:10.371Z,13.36
2023-04-27T09:22:48.521Z,13.98
2023-04-27T09:25:29.424Z,14.05
2023-04-27T09:27:59.524Z,13.94
2023-04-27T09:30:30.273Z,14.34
2023-04-27T09:33:02.287Z,14.58
2023-04-27T09:35:33.918Z,14.53
2023-04-27T09:38:04.178Z,14.24
2023-04-27T09:40:33.656Z,13.87
2023-04-27T09:43:03.037Z,13.45
2023-04-27T09:45:34.405Z,13.10
2023-04-27T09:48:05.429Z,12.83
2023-04-27T09:50:38.255Z,12.58
2023-04-27T09:53:11.809Z,12.24
2023-04-27T09:55:45.057Z,11.97
2023-04-27T09:59:02.268Z,11.62
2023-04-27T10:01:42.283Z,11.35
2023-04-27T10:04:31.172Z,11.17
2023-04-27T10:07:03.211Z,10.89
2023-04-27T10:09:41.702Z,10.64
2023-04-27T10:12:20.302Z,10.53
2023-04-27T10:14:53.852Z,10.47
2023-04-27T10:17:30.789Z,10.59
2023-04-27T10:20:01.754Z,10.66
2023-04-27T10:22:41.665Z,10.75
2023-04-27T10:25:23.882Z,10.85
2023-04-27T10:27:55.805Z,10.94
2023-04-27T10:30:27.785Z,11.03
2023-04-27T10:32:58.998Z,11.10
2023-04-27T10:35:35.342Z,11.22
2023-04-27T10:38:08.792Z,11.29
2023-04-27T10:40:39.819Z,11.35
2023-04-27T10:43:14.162Z,11.47
2023-04-27T10:45:44.074Z,11.64
2023-04-27T10:48:15.843Z,11.78
2023-04-27T10:50:46.901Z,11.96
2023-04-27T10:53:16.010Z,12.08
2023-04-27T10:55:46.954Z,12.13
2023-04-27T10:58:16.154Z,12.20
2023-04-27T11:00:45.204Z,12.32
2023-04-27T11:03:18.299Z,12.42
2023-04-27T11:05:49.244Z,12.50
2023-04-27T11:08:21.084Z,12.63
2023-04-27T11:10:53.388Z,12.84
2023-04-27T11:13:25.189Z,12.97
2023-04-27T11:15:55.793Z,13.06
2023-04-27T11:18:27.519Z,13.04
2023-04-27T11:21:09.278Z,13.05
2023-04-27T11:23:39.683Z,13.07
2023-04-27T11:26:14.756Z,13.08
2023-04-27T11:28:44.507Z,13.06
2023-04-27T11:31:13.665Z,13.03
2023-04-27T11:33:50.124Z,12.94
2023-04-27T11:36:19.581Z,12.90
2023-04-27T11:38:48.999Z,12.91
2023-04-27T11:41:19.612Z,12.90
2023-04-27T11:43:49.597Z,12.96
2023-04-27T11:46:22.448Z,13.01
2023-04-27T11:48:51.606Z,13.22
2023-04-27T11:51:20.486Z,13.25
2023-04-27T11:53:51.260Z,13.15
2023-04-27T11:56:21.339Z,13.21
2023-04-27T11:58:50.463Z,13.29
2023-04-27T12:01:27.733Z,13.31
2023-04-27T12:04:02.358Z,13.26
2023-04-27T12:06:33.177Z,13.28
2023-04-27T12:09:04.145Z,13.30
2023-04-27T12:11:34.476Z,13.28
2023-04-27T12:14:04.103Z,13.28
2023-04-27T12:16:32.880Z,13.39
2023-04-27T12:19:02.045Z,13.38
2023-04-27T12:21:32.247Z,13.41
2023-04-27T12:24:01.192Z,13.42
2023-04-27T12:26:30.682Z,13.43
2023-04-27T12:29:01.328Z,13.41
2023-04-27T12:31:31.289Z,13.33
2023-04-27T12:34:00.404Z,13.09
2023-04-27T12:36:29.573Z,13.23
2023-04-27T12:39:02.554Z,13.38
2023-04-27T12:41:31.252Z,13.31
2023-04-27T12:44:01.619Z,13.20
2023-04-27T12:46:30.392Z,12.99
2023-04-27T12:48:59.576Z,12.82
2023-04-27T12:51:29.860Z,12.75
2023-04-27T12:54:00.815Z,12.70
2023-04-27T12:56:30.059Z,12.64
2023-04-27T12:58:59.279Z,12.57
2023-04-27T13:01:31.005Z,12.60
2023-04-27T13:04:03.502Z,12.59
2023-04-27T13:06:33.252Z,12.70
2023-04-27T13:09:02.632Z,12.82
2023-04-27T13:11:31.340Z,12.94
2023-04-27T13:14:02.137Z,13.01
2023-04-27T13:16:32.591Z,12.99
2023-04-27T13:19:02.042Z,12.86
2023-04-27T13:21:30.886Z,12.84
2023-04-27T13:24:00.468Z,12.82
2023-04-27T13:26:29.442Z,12.86
2023-04-27T13:28:58.544Z,12.78
2023-04-27T13:31:27.378Z,12.81
2023-04-27T13:33:57.709Z,12.79
2023-04-27T13:36:26.978Z,12.76
2023-04-27T13:38:56.285Z,12.76
2023-04-27T13:41:25.084Z,12.70
2023-04-27T13:43:54.128Z,12.70
2023-04-27T13:46:22.832Z,12.70
2023-04-27T13:48:51.829Z,12.71
2023-04-27T13:51:22.088Z,12.75
2023-04-27T13:53:51.381Z,12.71
2023-04-27T13:56:20.097Z,12.63
2023-04-27T13:58:49.079Z,12.59
2023-04-27T14:01:17.859Z,12.57
2023-04-27T14:03:46.996Z,12.65
2023-04-27T14:06:16.770Z,12.70
2023-04-27T14:08:47.146Z,12.74
2023-04-27T14:11:16.291Z,12.84
2023-04-27T14:13:45.406Z,12.91
2023-04-27T14:16:14.120Z,12.87
2023-04-27T14:18:43.287Z,12.85
2023-04-27T14:21:11.957Z,12.78
2023-04-27T14:23:41.061Z,12.69
2023-04-27T14:26:11.253Z,12.60
2023-04-27T14:28:40.236Z,12.47
2023-04-27T14:31:08.989Z,12.30
2023-04-27T14:33:38.018Z,12.40
2023-04-27T14:36:08.604Z,12.45
2023-04-27T14:38:37.586Z,12.50
2023-04-27T14:41:08.447Z,12.61
2023-04-27T14:43:38.879Z,12.84
2023-04-27T14:46:19.723Z,12.92
2023-04-27T14:48:51.329Z,12.86
2023-04-27T14:51:20.365Z,12.82
2023-04-27T14:53:49.464Z,12.71
2023-04-27T14:56:18.207Z,12.57
2023-04-27T14:58:48.513Z,12.50
2023-04-27T15:01:17.364Z,12.42
2023-04-27T15:03:46.752Z,12.31
2023-04-27T15:06:15.524Z,12.16
2023-04-27T15:08:44.540Z,12.03
2023-04-27T15:11:13.400Z,11.96
2023-04-27T15:13:42.363Z,11.88
2023-04-27T15:16:12.408Z,11.81
2023-04-27T15:18:42.299Z,11.73
2023-04-27T15:21:11.031Z,11.65
2023-04-27T15:23:40.106Z,11.57
2023-04-27T15:26:08.825Z,11.53
2023-04-27T15:28:38.154Z,11.57
2023-04-27T15:31:06.908Z,11.62
2023-04-27T15:33:37.368Z,11.67
2023-04-27T15:36:06.955Z,11.68
2023-04-27T15:38:36.355Z,11.71
2023-04-27T15:41:05.197Z,11.76
2023-04-27T15:43:34.252Z,11.73
2023-04-27T15:46:05.475Z,11.71
2023-04-27T15:48:36.372Z,11.72
2023-04-27T15:51:09.577Z,11.81
2023-04-27T15:53:39.450Z,11.77
2023-04-27T15:56:08.679Z,11.72
2023-04-27T15:58:37.627Z,11.64
2023-04-27T16:01:06.778Z,11.57
2023-04-27T16:03:37.835Z,11.58
2023-04-27T16:06:07.779Z,11.59
2023-04-27T16:08:36.908Z,11.61
2023-04-27T16:11:06.710Z,11.62
2023-04-27T16:13:35.838Z,11.57
2023-04-27T16:16:04.928Z,11.55
2023-04-27T16:18:34.804Z,11.58
2023-04-27T16:21:05.077Z,11.55
2023-04-27T16:23:34.109Z,11.53
2023-04-27T16:26:02.756Z,11.53
2023-04-27T16:28:32.837Z,11.53
2023-04-27T16:31:01.687Z,11.48
2023-04-27T16:33:31.392Z,11.51
2023-04-27T16:36:00.186Z,11.56
2023-04-27T16:38:30.467Z,11.57
2023-04-27T16:40:59.589Z,11.57
2023-04-27T16:43:29.976Z,11.56
2023-04-27T16:45:58.756Z,11.58
2023-04-27T16:48:27.938Z,11.59
2023-04-27T16:50:56.746Z,11.60
2023-04-27T16:53:27.084Z,11.57
2023-04-27T16:56:01.964Z,11.46
2023-04-27T16:58:32.889Z,11.46
2023-04-27T17:01:01.740Z,11.43
2023-04-27T17:03:31.062Z,11.41
2023-04-27T17:05:59.974Z,11.43
2023-04-27T17:08:29.174Z,11.39
2023-04-27T17:10:59.201Z,11.32
2023-04-27T17:13:28.095Z,11.32
2023-04-27T17:15:56.858Z,11.28
2023-04-27T17:18:25.967Z,11.20
2023-04-27T17:20:54.690Z,11.15
2023-04-27T17:23:24.693Z,11.16
2023-04-27T17:25:53.352Z,11.18
2023-04-27T17:28:23.761Z,11.16
2023-04-27T17:30:52.754Z,11.17
2023-04-27T17:33:21.778Z,11.16
2023-04-27T17:35:50.481Z,11.09
2023-04-27T17:38:19.550Z,10.98
2023-04-27T17:40:48.206Z,10.95
2023-04-27T17:43:17.289Z,10.96
2023-04-27T17:45:47.372Z,10.95
2023-04-27T17:48:17.012Z,10.90
2023-04-27T17:50:46.063Z,10.87
2023-04-27T17:53:15.399Z,10.80
2023-04-27T17:55:47.645Z,10.72
2023-04-27T17:58:17.208Z,10.64
2023-04-27T18:00:47.420Z,10.59
2023-04-27T18:03:17.074Z,10.55
2023-04-27T18:05:46.101Z,10.52
2023-04-27T18:08:15.163Z,10.47
2023-04-27T18:10:43.776Z,10.38
2023-04-27T18:13:13.047Z,10.32
2023-04-27T18:15:41.786Z,10.29
2023-04-27T18:18:16.789Z,10.24
2023-04-27T18:20:47.745Z,10.19
2023-04-27T18:23:16.907Z,10.12
2023-04-27T18:25:45.604Z,10.07
2023-04-27T18:28:14.990Z,9.98
2023-04-27T18:30:43.833Z,9.93
2023-04-27T18:33:14.354Z,9.89
2023-04-27T18:35:43.292Z,9.82
2023-04-27T18:38:12.530Z,9.73
2023-04-27T18:40:41.959Z,9.66
2023-04-27T18:43:11.461Z,9.62
2023-04-27T18:45:40.272Z,9.54
2023-04-27T18:48:10.056Z,9.47
2023-04-27T18:50:40.354Z,9.42
2023-04-27T18:53:09.409Z,9.39
2023-04-27T18:55:39.487Z,9.36
2023-04-27T18:58:08.482Z,9.32
2023-04-27T19:00:38.916Z,9.26
2023-04-27T19:03:08.116Z,9.16
2023-04-27T19:05:37.542Z,9.08
2023-04-27T19:08:08.133Z,8.99
2023-04-27T19:10:37.367Z,8.93
2023-04-27T19:13:06.388Z,8.87
2023-04-27T19:15:35.216Z,8.83
2023-04-27T19:18:10.530Z,8.81
2023-04-27T19:20:40.263Z,8.73
2023-04-27T19:23:12.641Z,8.71
2023-04-27T19:25:41.433Z,8.66
2023-04-27T19:28:10.461Z,8.61
2023-04-27T19:30:39.419Z,8.58
2023-04-27T19:33:08.456Z,8.56
2023-04-27T19:35:37.192Z,8.53
2023-04-27T19:38:06.653Z,8.51
2023-04-27T19:40:37.180Z,8.50
2023-04-27T19:43:07.126Z,8.46
2023-04-27T19:45:38.249Z,8.45
2023-04-27T19:48:07.882Z,8.41
2023-04-27T19:50:38.506Z,8.38
2023-04-27T19:53:07.426Z,8.36
2023-04-27T19:55:38.144Z,8.33
2023-04-27T19:58:07.394Z,8.30
2023-04-27T20:00:36.327Z,8.26
2023-04-27T20:03:06.505Z,8.21
2023-04-27T20:05:37.528Z,8.19
2023-04-27T20:08:06.943Z,8.15
2023-04-27T20:10:36.969Z,8.10
2023-04-27T20:13:06.108Z,8.09
2023-04-27T20:15:35.528Z,8.07
2023-04-27T20:18:04.913Z,8.03
2023-04-27T20:20:33.680Z,7.98
2023-04-27T20:23:02.693Z,7.96
2023-04-27T20:25:31.579Z,7.86
2023-04-27T20:28:01.903Z,7.83
2023-04-27T20:30:30.989Z,7.77
2023-04-27T20:33:01.489Z,7.74
2023-04-27T20:35:30.239Z,7.67
2023-04-27T20:38:00.225Z,7.62
2023-04-27T20:40:29.493Z,7.60
2023-04-27T20:42:58.580Z,7.55
2023-04-27T20:45:28.927Z,7.49
2023-04-27T20:47:58.405Z,7.45
2023-04-27T20:50:27.370Z,7.40
2023-04-27T20:52:56.452Z,7.37
2023-04-27T20:55:25.365Z,7.34
2023-04-27T20:57:54.278Z,7.26
2023-04-27T21:00:23.141Z,7.18
2023-04-27T21:02:53.798Z,7.19
2023-04-27T21:05:22.792Z,7.17
2023-04-27T21:07:51.702Z,7.10
2023-04-27T21:10:20.391Z,7.08
2023-04-27T21:12:49.381Z,7.07
2023-04-27T21:15:18.016Z,7.07
2023-04-27T21:17:47.115Z,7.06
2023-04-27T21:20:17.212Z,7.06
2023-04-27T21:22:46.372Z,7.07
2023-04-27T21:25:15.047Z,7.06
2023-04-27T21:27:44.032Z,7.08
2023-04-27T21:30:13.560Z,7.06
2023-04-27T21:32:42.473Z,7.03
2023-04-27T21:35:11.476Z,6.99
2023-04-27T21:37:41.830Z,7.00
2023-04-27T21:40:11.925Z,6.95
2023-04-27T21:42:40.950Z,6.95
2023-04-27T21:45:11.086Z,6.90
2023-04-27T21:47:40.139Z,6.87
2023-04-27T21:50:10.085Z,6.86
2023-04-27T21:52:39.246Z,6.83
2023-04-27T21:55:10.046Z,6.80
2023-04-27T21:57:38.940Z,6.74
2023-04-27T22:00:13.875Z,6.69
2023-04-27T22:02:49.656Z,6.63
2023-04-27T22:05:20.988Z,6.59
2023-04-27T22:07:49.901Z,6.53
2023-04-27T22:10:20.041Z,6.49
2023-04-27T22:12:49.106Z,6.44
2023-04-27T22:15:19.803Z,6.43
2023-04-27T22:17:49.852Z,6.43
2023-04-27T22:20:19.040Z,6.41
2023-04-27T22:22:48.199Z,6.35
2023-04-27T22:25:17.148Z,6.31
2023-04-27T22:27:47.441Z,6.30
2023-04-27T22:30:16.519Z,6.26
2023-04-27T22:32:45.763Z,6.22
2023-04-27T22:35:25.597Z,6.22
2023-04-27T22:37:56.194Z,6.21
2023-04-27T22:40:25.515Z,6.18
2023-04-27T22:42:56.579Z,6.15
2023-04-27T22:45:25.318Z,6.16
2023-04-27T22:47:54.635Z,6.12
2023-04-27T22:50:23.298Z,6.13
2023-04-27T22:52:53.041Z,6.11
2023-04-27T22:55:22.276Z,6.10
2023-04-27T22:57:53.757Z,6.06
2023-04-27T23:00:24.142Z,6.03
2023-04-27T23:02:53.197Z,6.03
2023-04-27T23:05:22.184Z,6.02
2023-04-27T23:07:52.086Z,5.96
2023-04-27T23:10:20.775Z,5.92
2023-04-27T23:12:50.759Z,5.90
2023-04-27T23:15:19.665Z,5.91
2023-04-27T23:17:50.020Z,5.86
2023-04-27T23:20:27.981Z,5.84
2023-04-27T23:22:58.299Z,5.77
2023-04-27T23:25:26.994Z,5.68
2023-04-27T23:27:56.062Z,5.69
2023-04-27T23:30:24.870Z,5.69
2023-04-27T23:32:55.214Z,5.65
2023-04-27T23:35:24.086Z,5.58
2023-04-27T23:37:53.104Z,5.57
2023-04-27T23:40:21.832Z,5.55
2023-04-27T23:42:51.804Z,5.54
2023-04-27T23:45:20.952Z,5.50
2023-04-27T23:47:50.074Z,5.49
2023-04-27T23:50:20.432Z,5.42
2023-04-27T23:52:49.688Z,5.39
2023-04-27T23:55:18.740Z,5.37
2023-04-27T23:57:47.925Z,5.32
